Flight Track Log - Related Links

Times and Time Zones

All times are in EDT time to prevent confusion due to time zone crossing. See the UAL252 flight status page for this flight to view local times or setup timezone preferences in your user account.


Time Position Orientation Groundspeed Altitude Reporting Facility
EDT Latitude Longitude Course Direction KTS MPH feet Rate Location/Type
Thu 10:54:18 AM 40.7333 -74.1333 270° West 200 230 1,800  Level New York TRACON
Thu 10:55:18 AM 40.8000 -74.1500 349° North 271 312 3,700 2,250 Climbing New York TRACON
Thu 10:56:00 AM 40.6834 -74.6345 270° West  Level FlightAware Approximate
Thu 10:56:18 AM 40.8333 -74.2333 298° West 280 322 6,300  Level New York TRACON
Thu 10:57:00 AM 40.6834 -74.7904 270° West  Level FlightAware Approximate
Thu 10:58:00 AM 40.6833 -74.9464 270° West  Level FlightAware Approximate
Thu 10:58:19 AM 40.8239 -74.4236 266° West 272 313 11,200  Level New York Center
Thu 10:59:00 AM 40.6667 -75.0957 270° West  Level FlightAware Approximate
Thu 10:59:19 AM 40.8058 -74.5297 257° West 272 313 14,100  Level New York Center
Thu 11:00:19 AM 40.7864 -74.6164 254° West 277 319 16,400 1,664 Climbing New York Center
Thu 11:01:18 AM 40.7619 -74.7328 255° West 292 336 17,400 1,322 Climbing New York Center
Thu 11:02:17 AM 40.7375 -74.8381 253° West 326 375 19,000 1,765 Climbing New York Center
Thu 11:03:17 AM 40.7078 -74.9731 254° West 343 395 20,900 1,785 Climbing New York Center
Thu 11:04:18 AM 40.6786 -75.0864 251° West 343 395 22,600 1,537 Climbing New York Center
Thu 11:05:18 AM 40.6286 -75.1981 239° Southwest 343 395 24,000 1,210 Climbing New York Center
Thu 11:06:17 AM 40.5786 -75.3094 239° Southwest 357 411 25,000 1,100 Climbing New York Center
Thu 11:07:18 AM 40.5261 -75.4236 239° Southwest 367 422 26,200 1,140 Climbing New York Center
Thu 11:08:18 AM 40.4692 -75.5425 238° Southwest 377 434 27,300 1,041 Climbing New York Center
Thu 11:09:19 AM 40.4186 -75.6589 240° Southwest 377 434 28,300 850 Climbing New York Center
Thu 11:10:18 AM 40.3636 -75.7775 239° Southwest 377 434 29,000 750 Climbing New York Center
Thu 11:11:19 AM 40.3178 -75.8778 239° Southwest 382 440 29,800 943 Climbing New York Center
Thu 11:12:57 AM 40.2147 -76.0967 238° Southwest 397 457 31,500 1,019 Climbing Washington Center
Thu 11:13:58 AM 40.1578 -76.2183 239° Southwest 397 457 32,500 934 Climbing Washington Center
Thu 11:14:59 AM 40.0989 -76.3428 238° Southwest 402 463 33,400 706 Climbing Washington Center
Thu 11:15:57 AM 40.0417 -76.4694 239° Southwest 402 463 33,900 303 Climbing Washington Center
Thu 11:16:58 AM 39.9803 -76.5933 237° Southwest 407 468 34,000 49 Climbing Washington Center
Thu 11:17:59 AM 39.9231 -76.7194 239° Southwest 407 468 34,000 50 Level Washington Center
Thu 11:18:59 AM 39.8550 -76.8536 237° Southwest 407 468 34,100  Climbing Washington Center
Thu 11:19:57 AM 39.7972 -76.9822 240° Southwest 413 475 34,000 -50 Descending Washington Center
Thu 11:20:58 AM 39.7375 -77.1081 238° Southwest 413 475 34,000  Level Washington Center
Thu 11:21:59 AM 39.6775 -77.2333 238° Southwest 413 475 34,000  Level Washington Center
Thu 11:22:57 AM 39.6194 -77.3586 239° Southwest 413 475 34,000  Level Washington Center
Thu 11:23:58 AM 39.5572 -77.4836 237° Southwest 413 475 34,000  Level Washington Center
Thu 11:24:58 AM 39.4989 -77.6114 239° Southwest 413 475 34,000  Level Washington Center
Thu 11:25:59 AM 39.4383 -77.7333 237° Southwest 413 475 34,000  Level Washington Center
Thu 11:26:57 AM 39.3819 -77.8606 240° Southwest 413 475 34,000  Level Washington Center
Thu 11:27:58 AM 39.3292 -77.9931 243° Southwest 413 475 34,000  Level Washington Center
Thu 11:28:59 AM 39.2767 -78.1225 242° Southwest 413 475 34,000 50 Level Washington Center
Thu 11:29:57 AM 39.2278 -78.2575 245° Southwest 407 468 34,100  Climbing Washington Center
Thu 11:30:57 AM 39.1956 -78.3931 253° West 402 463 34,000 -49 Descending Washington Center
Thu 11:31:59 AM 39.1631 -78.5283 253° West 402 463 34,000  Level Washington Center
Thu 11:32:59 AM 39.1325 -78.6661 254° West 402 463 34,000  Level Washington Center
Thu 11:33:57 AM 39.1022 -78.7906 253° West 402 463 34,000  Level Washington Center
Thu 11:34:57 AM 39.0714 -78.9283 254° West 402 463 34,000 50 Level Washington Center
Thu 11:35:58 AM 39.0383 -79.0686 253° West 402 463 34,100  Climbing Washington Center
Thu 11:36:58 AM 39.0028 -79.2083 252° West 407 468 34,000 -50 Descending Washington Center
Thu 11:37:59 AM 38.9694 -79.3483 253° West 412 474 34,000  Level Washington Center
Thu 11:38:57 AM 38.9381 -79.4856 254° West 412 474 34,000  Level Washington Center
Thu 11:39:57 AM 38.9039 -79.6303 253° West 417 480 34,000  Level Washington Center
Thu 11:40:58 AM 38.8700 -79.7672 252° West 417 480 34,000  Level Washington Center
Thu 11:41:51 AM 38.8375 -79.8817 250° West 404 465 34,000  Level Indianapolis Center
Thu 11:42:53 AM 38.8039 -80.0175 252° West 401 461 34,000  Level Indianapolis Center
Thu 11:43:54 AM 38.7622 -80.1800 252° West 400 460 34,000 -49 Level Indianapolis Center
Thu 11:44:56 AM 38.7289 -80.3144 252° West 397 457 33,900 48 Descending Indianapolis Center
Thu 11:45:58 AM 38.6944 -80.4519 252° West 403 464 34,100 49 Climbing Indianapolis Center
Thu 11:46:59 AM 38.6594 -80.5875 252° West 402 463 34,000 -49 Descending Indianapolis Center
Thu 11:48:01 AM 38.6242 -80.7231 252° West 401 461 34,000 -49 Level Indianapolis Center
Thu 11:49:02 AM 38.5881 -80.8575 251° West 401 461 33,900  Descending Indianapolis Center
Thu 11:50:04 AM 38.5247 -80.9808 237° Southwest 409 471 34,000 49 Climbing Indianapolis Center
Thu 11:51:05 AM 38.4603 -81.1031 236° Southwest 413 475 34,000 49 Level Indianapolis Center
Thu 11:52:07 AM 38.3797 -81.2111 226° Southwest 421 484 34,100  Climbing Indianapolis Center
Thu 11:53:09 AM 38.2736 -81.2742 205° Southwest 425 489 34,000 -49 Descending Indianapolis Center
Thu 11:54:10 AM 38.1414 -81.3392 201° Southwest 423 487 34,000  Level Indianapolis Center
Thu 11:55:12 AM 38.0300 -81.3919 200° South 423 487 34,000  Level Indianapolis Center
Thu 11:56:14 AM 37.9206 -81.4453 201° Southwest 422 486 34,000  Level Indianapolis Center
Thu 11:57:15 AM 37.8183 -81.5042 204° Southwest 416 479 34,000  Level Indianapolis Center
Thu 11:58:17 AM 37.7108 -81.5639 204° Southwest 417 480 34,000  Level Indianapolis Center
Thu 11:59:18 AM 37.6050 -81.6256 205° Southwest 418 481 34,000  Level Indianapolis Center
Thu 12:00:20 PM 37.4778 -81.6975 204° Southwest 424 488 34,000  Level Indianapolis Center
Thu 12:01:22 PM 37.3661 -81.7617 205° Southwest 434 499 34,000  Level Indianapolis Center
Thu 12:02:23 PM 37.2556 -81.8286 206° Southwest 439 505 34,000  Level Indianapolis Center
Thu 12:03:25 PM 37.1506 -81.9050 210° Southwest 438 504 34,000  Level Indianapolis Center
Thu 12:04:26 PM 37.0608 -82.0069 222° Southwest 434 499 34,000  Level Indianapolis Center
Thu 12:05:28 PM 36.9694 -82.1122 223° Southwest 441 507 34,000  Level Indianapolis Center
Thu 12:06:29 PM 36.8767 -82.2150 222° Southwest 443 510 34,000  Level Indianapolis Center
Thu 12:07:31 PM 36.7842 -82.3197 222° Southwest 444 511 34,000  Level Indianapolis Center
Thu 12:08:33 PM 36.6769 -82.4411 222° Southwest 442 509 34,000  Level Indianapolis Center
Thu 12:09:20 PM 36.6139 -82.5103 221° Southwest 444 511 34,000  Level Atlanta Center
Thu 12:10:20 PM 36.5192 -82.6103 220° Southwest 444 511 34,000  Level Atlanta Center
Thu 12:11:20 PM 36.4286 -82.7125 222° Southwest 444 511 34,000  Level Atlanta Center
Thu 12:12:20 PM 36.3275 -82.8250 222° Southwest 444 511 34,000  Level Atlanta Center
Thu 12:13:20 PM 36.2347 -82.9294 222° Southwest 444 511 34,000  Level Atlanta Center
Thu 12:14:20 PM 36.1544 -83.0486 230° Southwest 449 517 34,000  Level Atlanta Center
Thu 12:15:20 PM 36.1117 -83.1881 249° West 444 511 34,000  Level Atlanta Center
Thu 12:16:20 PM 36.0689 -83.3350 250° West 439 505 34,000  Level Atlanta Center
Thu 12:17:20 PM 36.0258 -83.4764 249° West 446 513 34,000  Level Atlanta Center
Thu 12:18:20 PM 35.9969 -83.6050 255° West 446 513 34,000  Level Atlanta Center
Thu 12:19:20 PM 36.0225 -83.7436 283° West 419 482 34,000  Level Atlanta Center
Thu 12:20:20 PM 36.0686 -83.8794 293° West 419 482 34,000  Level Atlanta Center
Thu 12:21:20 PM 36.1147 -84.0106 294° West 419 482 34,000  Level Atlanta Center
Thu 12:22:20 PM 36.1625 -84.1417 294° West 419 482 34,000  Level Atlanta Center
Thu 12:23:19 PM 36.1939 -84.2742 286° West 420 483 34,000  Level Indianapolis Center
Thu 12:24:20 PM 36.1994 -84.4197 273° West 425 489 34,000  Level Indianapolis Center
Thu 12:25:22 PM 36.2069 -84.5931 273° West 424 488 34,000  Level Indianapolis Center
Thu 12:26:23 PM 36.2144 -84.7369 274° West 423 487 34,000  Level Indianapolis Center
Thu 12:27:25 PM 36.2197 -84.8786 273° West 417 480 34,000  Level Indianapolis Center
Thu 12:28:27 PM 36.2258 -85.0197 273° West 416 479 34,000  Level Indianapolis Center
Thu 12:29:28 PM 36.2311 -85.1608 273° West 414 476 34,000  Level Indianapolis Center
Thu 12:30:30 PM 36.2372 -85.3019 273° West 414 476 34,000  Level Indianapolis Center
Thu 12:31:31 PM 36.2422 -85.4422 273° West 410 472 34,000  Level Indianapolis Center
Thu 12:32:33 PM 36.2478 -85.6097 272° West 408 470 34,000 -488 Level Indianapolis Center
Thu 12:33:34 PM 36.2536 -85.7478 273° West 402 463 33,000 -488 Descending Indianapolis Center
Thu 12:34:36 PM 36.2578 -85.8803 272° West 397 457 33,000  Level Indianapolis Center
Thu 12:34:56 PM 36.2611 -85.9375 274° West 405 466 33,000  Level Memphis Center
Thu 12:35:56 PM 36.2639 -86.0714 272° West 400 460 33,000  Level Memphis Center
Thu 12:36:56 PM 36.2686 -86.2100 272° West 405 466 33,000  Level Memphis Center
Thu 12:37:56 PM 36.2731 -86.3464 272° West 398 458 33,000  Level Memphis Center
Thu 12:38:56 PM 36.2775 -86.4850 272° West 403 464 33,000  Level Memphis Center
Thu 12:39:56 PM 36.2794 -86.6214 271° West 403 464 33,000  Level Memphis Center
Thu 12:40:56 PM 36.2833 -86.7475 272° West 403 464 33,000  Level Memphis Center
Thu 12:41:56 PM 36.2878 -86.9042 272° West 408 470 33,000 300 Level Memphis Center
Thu 12:42:56 PM 36.2914 -87.0406 272° West 433 498 33,600 500 Climbing Memphis Center
Thu 12:43:56 PM 36.2975 -87.1897 273° West 425 489 34,000 200 Climbing Memphis Center
Thu 12:44:56 PM 36.3008 -87.3311 272° West 412 474 34,000  Level Memphis Center
Thu 12:45:56 PM 36.3042 -87.4728 272° West 412 474 34,000  Level Memphis Center
Thu 12:46:56 PM 36.3075 -87.6142 272° West 412 474 34,000  Level Memphis Center
Thu 12:47:56 PM 36.3106 -87.7583 272° West 412 474 34,000  Level Memphis Center
Thu 12:48:56 PM 36.3133 -87.8972 271° West 412 474 34,000  Level Memphis Center
Thu 12:49:56 PM 36.3161 -88.0442 271° West 423 487 34,000  Level Memphis Center
Thu 12:50:56 PM 36.3208 -88.1856 272° West 423 487 34,000  Level Memphis Center
Thu 12:51:56 PM 36.3214 -88.3297 270° West 418 481 34,000  Level Memphis Center
Thu 12:52:56 PM 36.3236 -88.4767 271° West 418 481 34,000  Level Memphis Center
Thu 12:53:56 PM 36.3236 -88.6183 270° West 418 481 34,000  Level Memphis Center
Thu 12:54:56 PM 36.3256 -88.7625 271° West 418 481 34,000  Level Memphis Center
Thu 12:55:56 PM 36.3253 -88.9042 270° West 418 481 34,000  Level Memphis Center
Thu 12:56:56 PM 36.3267 -89.0458 271° West 418 481 34,000  Level Memphis Center
Thu 12:57:56 PM 36.3239 -89.1825 269° West 418 481 34,000  Level Memphis Center
Thu 12:58:56 PM 36.3211 -89.3369 269° West 423 487 34,000  Level Memphis Center
Thu 12:59:56 PM 36.3264 -89.4708 273° West 436 502 34,000  Level Memphis Center
Thu 01:00:56 PM 36.3294 -89.6100 272° West 431 496 34,000  Level Memphis Center
Thu 01:01:56 PM 36.3300 -89.7489 270° West 417 480 34,000  Level Memphis Center
Thu 01:02:56 PM 36.3308 -89.8908 270° West 417 480 34,000  Level Memphis Center
Thu 01:03:56 PM 36.3292 -90.0350 269° West 417 480 34,000  Level Memphis Center
Thu 01:04:56 PM 36.3294 -90.1767 270° West 422 486 34,000  Level Memphis Center
Thu 01:05:56 PM 36.3294 -90.3208 270° West 422 486 34,000  Level Memphis Center
Thu 01:06:56 PM 36.3294 -90.4625 270° West 422 486 34,000  Level Memphis Center
Thu 01:07:56 PM 36.3294 -90.6069 270° West 422 486 34,000  Level Memphis Center
Thu 01:08:56 PM 36.3269 -90.7511 269° West 422 486 34,000  Level Memphis Center
Thu 01:09:56 PM 36.3242 -90.8978 269° West 422 486 34,000  Level Memphis Center
Thu 01:10:56 PM 36.3236 -91.0422 270° West 422 486 34,000  Level Memphis Center
Thu 01:11:56 PM 36.3228 -91.1864 270° West 422 486 34,000  Level Memphis Center
Thu 01:12:56 PM 36.3194 -91.3306 268° West 422 486 34,000  Level Memphis Center
Thu 01:13:56 PM 36.3183 -91.4747 269° West 422 486 34,000 350 Level Memphis Center
Thu 01:14:56 PM 36.3192 -91.6217 270° West 422 486 34,700 800 Climbing Memphis Center
Thu 01:15:56 PM 36.3214 -91.7789 271° West 422 486 35,600 650 Climbing Memphis Center
Thu 01:16:56 PM 36.3197 -91.9231 269° West 422 486 36,000 200 Climbing Memphis Center
Thu 01:17:56 PM 36.3158 -92.0672 268° West 422 486 36,000  Level Memphis Center
Thu 01:18:56 PM 36.3117 -92.2089 268° West 422 486 36,000  Level Memphis Center
Thu 01:19:56 PM 36.3117 -92.3556 270° West 422 486 36,000  Level Memphis Center
Thu 01:20:56 PM 36.3069 -92.5022 268° West 422 486 36,000  Level Memphis Center
Thu 01:21:56 PM 36.3044 -92.6464 269° West 422 486 36,000  Level Memphis Center
Thu 01:22:56 PM 36.2997 -92.7931 268° West 422 486 36,000  Level Memphis Center
Thu 01:23:56 PM 36.2989 -92.9347 270° West 422 486 36,000  Level Memphis Center
Thu 01:24:56 PM 36.2956 -93.0839 268° West 422 486 36,000  Level Memphis Center
Thu 01:25:56 PM 36.2903 -93.2306 267° West 422 486 36,000  Level Memphis Center
Thu 01:26:56 PM 36.2847 -93.3769 267° West 422 486 36,000  Level Memphis Center
Thu 01:27:56 PM 36.2833 -93.5211 269° West 422 486 36,000  Level Memphis Center
Thu 01:28:56 PM 36.2772 -93.6675 267° West 422 486 36,000  Level Memphis Center
Thu 01:29:56 PM 36.2733 -93.8117 268° West 422 486 36,000  Level Memphis Center
Thu 01:30:56 PM 36.2692 -93.9608 268° West 422 486 36,000  Level Memphis Center
Thu 01:31:56 PM 36.2628 -94.1047 267° West 422 486 36,000  Level Memphis Center
Thu 01:33:53 PM 36.2553 -94.3869 268° West 427 491 36,000  Level Kansas City Center
Thu 01:34:56 PM 36.2536 -94.5303 269° West 421 484 36,000  Level Kansas City Center
Thu 01:35:57 PM 36.2461 -94.6803 266° West 432 497 36,000  Level Kansas City Center
Thu 01:37:01 PM 36.2419 -94.8283 268° West 433 498 36,000  Level Kansas City Center
Thu 01:38:02 PM 36.2364 -94.9775 267° West 434 499 36,000  Level Kansas City Center
Thu 01:39:04 PM 36.2292 -95.1394 267° West 434 499 36,000  Level Kansas City Center
Thu 01:40:07 PM 36.2225 -95.2883 267° West 434 499 36,000  Level Kansas City Center
Thu 01:41:08 PM 36.2153 -95.4369 267° West 434 499 36,000  Level Kansas City Center
Thu 01:42:11 PM 36.2081 -95.6156 267° West 434 499 36,000  Level Kansas City Center
Thu 01:43:12 PM 36.1997 -95.7642 266° West 434 499 36,000  Level Kansas City Center
Thu 01:44:14 PM 36.2044 -95.9114 272° West 433 498 36,000  Level Kansas City Center
Thu 01:45:17 PM 36.2122 -96.0614 274° West 437 503 36,000  Level Kansas City Center
Thu 01:46:18 PM 36.2203 -96.2108 274° West 436 502 36,000  Level Kansas City Center
Thu 01:47:20 PM 36.2292 -96.3911 274° West 438 504 36,000  Level Kansas City Center
Thu 01:48:23 PM 36.2353 -96.5403 273° West 437 503 36,000  Level Kansas City Center
Thu 01:49:24 PM 36.2428 -96.6892 274° West 437 503 36,000  Level Kansas City Center
Thu 01:50:28 PM 36.2494 -96.8406 273° West 440 506 36,000  Level Kansas City Center
Thu 01:51:29 PM 36.2753 -96.9867 282° West 440 506 36,000  Level Kansas City Center
Thu 01:52:30 PM 36.3017 -97.1300 283° West 436 502 36,000  Level Kansas City Center
Thu 01:53:33 PM 36.3361 -97.3042 284° West 435 501 36,000  Level Kansas City Center
Thu 01:54:34 PM 36.3642 -97.4531 283° West 438 504 36,000  Level Kansas City Center
Thu 01:55:37 PM 36.3931 -97.6003 284° West 441 507 36,000  Level Kansas City Center
Thu 01:56:38 PM 36.4219 -97.7497 284° West 439 505 36,000  Level Kansas City Center
Thu 01:57:42 PM 36.4506 -97.8967 284° West 439 505 36,000  Level Kansas City Center
Thu 01:58:42 PM 36.4806 -98.0439 284° West 439 505 36,000  Level Kansas City Center
Thu 01:59:46 PM 36.5147 -98.2200 284° West 438 504 36,000  Level Kansas City Center
Thu 02:00:46 PM 36.5436 -98.3669 284° West 438 504 36,000  Level Kansas City Center
Thu 02:01:50 PM 36.5725 -98.5136 284° West 438 504 36,000  Level Kansas City Center
Thu 02:02:52 PM 36.6039 -98.6631 285° West 442 509 36,000  Level Kansas City Center
Thu 02:03:53 PM 36.6022 -98.8119 269° West 438 504 36,000  Level Kansas City Center
Thu 02:04:57 PM 36.5853 -98.9661 262° West 446 513 36,000  Level Kansas City Center
Thu 02:05:57 PM 36.5631 -99.1442 261° West 439 505 36,000  Level Kansas City Center
Thu 02:07:01 PM 36.5436 -99.2939 261° West 439 505 36,000  Level Kansas City Center
Thu 02:08:01 PM 36.5253 -99.4447 261° West 443 510 36,000  Level Kansas City Center
Thu 02:09:03 PM 36.5056 -99.5939 261° West 441 507 36,000  Level Kansas City Center
Thu 02:10:06 PM 36.4869 -99.7444 261° West 442 509 36,000  Level Kansas City Center
Thu 02:11:07 PM 36.4625 -99.9247 260° West 442 509 36,000  Level Kansas City Center
Thu 02:12:11 PM 36.4428 -100.0742 261° West 441 507 36,000  Level Kansas City Center
Thu 02:13:12 PM 36.4233 -100.2253 261° West 443 510 36,000  Level Kansas City Center
Thu 02:14:15 PM 36.4019 -100.3767 260° West 444 511 36,000  Level Kansas City Center
Thu 02:15:17 PM 36.3822 -100.5275 261° West 444 511 36,000  Level Kansas City Center
Thu 02:16:18 PM 36.3600 -100.6792 260° West 446 513 36,000  Level Kansas City Center
Thu 02:17:22 PM 36.3353 -100.8631 261° West 445 512 36,000  Level Kansas City Center
Thu 02:17:38 PM 36.3294 -100.9047 260° West 447 514 36,000  Level Albuquerque Center
Thu 02:18:40 PM 36.3086 -101.0494 260° West 446 513 36,000  Level Albuquerque Center
Thu 02:19:42 PM 36.2856 -101.2192 260° West 446 513 36,000  Level Albuquerque Center
Thu 02:20:44 PM 36.2633 -101.3714 260° West 440 506 36,000  Level Albuquerque Center
Thu 02:21:45 PM 36.2431 -101.5183 260° West 437 503 36,000  Level Albuquerque Center
Thu 02:22:47 PM 36.2222 -101.6647 260° West 435 501 36,000  Level Albuquerque Center
Thu 02:23:49 PM 36.1997 -101.8089 259° West 432 497 36,000  Level Albuquerque Center
Thu 02:24:51 PM 36.1775 -101.9581 260° West 439 505 36,000  Level Albuquerque Center
Thu 02:25:53 PM 36.1561 -102.1036 260° West 436 502 36,000  Level Albuquerque Center
Thu 02:27:00 PM 36.1227 -102.2561 260° West  Level FlightAware Approximate
Thu 02:27:56 PM 36.1061 -102.4278 260° West 439 505 36,000  Level Albuquerque Center
Thu 02:28:58 PM 36.0842 -102.5750 260° West 439 505 36,000  Level Albuquerque Center
Thu 02:30:00 PM 36.0619 -102.7197 259° West 434 499 36,000  Level Albuquerque Center
Thu 02:31:02 PM 36.0392 -102.8653 259° West 433 498 36,000  Level Albuquerque Center
Thu 02:32:04 PM 36.0142 -103.0189 259° West 431 496 36,000  Level Albuquerque Center
Thu 02:33:06 PM 35.9911 -103.1656 259° West 432 497 36,000  Level Albuquerque Center
Thu 02:34:08 PM 35.9639 -103.3353 259° West 430 495 36,000  Level Albuquerque Center
Thu 02:35:10 PM 35.9397 -103.4825 259° West 434 499 36,000  Level Albuquerque Center
Thu 02:36:12 PM 35.9158 -103.6297 259° West 435 501 36,000  Level Albuquerque Center
Thu 02:37:13 PM 35.8914 -103.7769 258° West 436 502 36,000  Level Albuquerque Center
Thu 02:38:15 PM 35.8672 -103.9242 259° West 437 503 36,000  Level Albuquerque Center
Thu 02:39:17 PM 35.8431 -104.0692 258° West 432 497 36,000  Level Albuquerque Center
Thu 02:40:19 PM 35.8181 -104.2153 258° West 433 498 36,000  Level Albuquerque Center
Thu 02:41:21 PM 35.7897 -104.3844 258° West 432 497 36,000  Level Albuquerque Center
Thu 02:42:23 PM 35.7642 -104.5300 258° West 433 498 36,000  Level Albuquerque Center
Thu 02:43:24 PM 35.7381 -104.6761 258° West 436 502 36,000  Level Albuquerque Center
Thu 02:44:26 PM 35.7125 -104.8225 258° West 436 502 36,000  Level Albuquerque Center
Thu 02:45:28 PM 35.6864 -104.9681 258° West 435 501 36,000  Level Albuquerque Center
Thu 02:46:30 PM 35.6603 -105.1125 257° West 433 498 36,000  Level Albuquerque Center
Thu 02:47:32 PM 35.6172 -105.2506 249° West 429 494 36,000  Level Albuquerque Center
Thu 02:48:34 PM 35.5597 -105.4083 246° West 431 496 36,000  Level Albuquerque Center
Thu 02:49:35 PM 35.5103 -105.5425 246° West 431 496 36,000  Level Albuquerque Center
Thu 02:50:37 PM 35.4628 -105.6769 247° West 427 491 36,000  Level Albuquerque Center
Thu 02:51:39 PM 35.4128 -105.8131 246° West 432 497 36,000  Level Albuquerque Center
Thu 02:52:41 PM 35.3639 -105.9475 246° West 431 496 36,000  Level Albuquerque Center
Thu 02:53:43 PM 35.3144 -106.0828 246° West 431 496 36,000  Level Albuquerque Center
Thu 02:54:45 PM 35.2667 -106.2139 246° West 431 496 36,000  Level Albuquerque Center
Thu 02:55:46 PM 35.2183 -106.3486 246° West 432 497 36,000  Level Albuquerque Center
Thu 02:56:48 PM 35.1683 -106.4808 245° Southwest 430 495 36,000  Level Albuquerque Center
Thu 02:57:50 PM 35.1119 -106.6392 247° West 437 503 36,000  Level Albuquerque Center
Thu 02:58:52 PM 35.0650 -106.7992 250° West 446 513 36,000  Level Albuquerque Center
Thu 02:59:54 PM 35.0275 -106.9322 251° West 437 503 36,000  Level Albuquerque Center
Thu 03:00:55 PM 35.0047 -107.0717 259° West 439 505 36,000  Level Albuquerque Center
Thu 03:01:57 PM 34.9825 -107.2372 261° West 445 512 36,000  Level Albuquerque Center
Thu 03:02:59 PM 34.9647 -107.3847 262° West 444 511 36,000  Level Albuquerque Center
Thu 03:04:01 PM 34.9467 -107.5311 261° West 438 504 36,000  Level Albuquerque Center
Thu 03:05:02 PM 34.9294 -107.6769 262° West 436 502 36,000 49 Level Albuquerque Center
Thu 03:06:04 PM 34.9083 -107.8464 261° West 434 499 36,100  Climbing Albuquerque Center
Thu 03:07:06 PM 34.8919 -107.9844 262° West 431 496 36,000 -48 Descending Albuquerque Center
Thu 03:08:08 PM 34.8533 -108.1131 250° West 422 486 36,000  Level Albuquerque Center
Thu 03:09:09 PM 34.8011 -108.2581 246° West 421 484 36,000  Level Albuquerque Center
Thu 03:10:11 PM 34.7561 -108.3911 248° West 424 488 36,000 48 Level Albuquerque Center
Thu 03:11:13 PM 34.7064 -108.5358 247° West 426 490 36,100  Climbing Albuquerque Center
Thu 03:12:15 PM 34.6614 -108.6631 247° West 427 491 36,000 -49 Descending Albuquerque Center
Thu 03:13:16 PM 34.6172 -108.7894 247° West 425 489 36,000  Level Albuquerque Center
Thu 03:14:18 PM 34.5653 -108.9375 247° West 426 490 36,000  Level Albuquerque Center
Thu 03:15:20 PM 34.5203 -109.0611 246° West 421 484 36,000  Level Albuquerque Center
Thu 03:16:22 PM 34.4681 -109.2050 246° West 417 480 36,000  Level Albuquerque Center
Thu 03:17:23 PM 34.4233 -109.3294 246° West 419 482 36,000  Level Albuquerque Center
Thu 03:18:25 PM 34.3706 -109.4753 246° West 421 484 36,000  Level Albuquerque Center
Thu 03:19:27 PM 34.3256 -109.6011 247° West 422 486 36,000  Level Albuquerque Center
Thu 03:20:29 PM 34.2800 -109.7269 246° West 426 490 36,000  Level Albuquerque Center
Thu 03:21:30 PM 34.2269 -109.8739 246° West 426 490 36,000  Level Albuquerque Center
Thu 03:22:32 PM 34.1797 -109.9997 246° West 428 493 36,000  Level Albuquerque Center
Thu 03:23:34 PM 34.1319 -110.1314 246° West 428 493 36,000  Level Albuquerque Center
Thu 03:24:36 PM 34.0844 -110.2586 246° West 423 487 36,000  Level Albuquerque Center
Thu 03:26:00 PM 34.0176 -110.4325 245° Southwest  Level FlightAware Approximate
Thu 03:26:39 PM 33.9847 -110.5233 245° Southwest 427 491 36,000  Level Albuquerque Center
Thu 03:27:41 PM 33.9286 -110.6775 246° West 422 486 36,000  Level Albuquerque Center
Thu 03:28:43 PM 33.8806 -110.8042 245° Southwest 417 480 36,000  Level Albuquerque Center
Thu 03:29:45 PM 33.8333 -110.9319 246° West 418 481 36,000  Level Albuquerque Center
Thu 03:30:47 PM 33.7831 -111.0581 244° Southwest 417 480 36,000  Level Albuquerque Center
Thu 03:31:48 PM 33.7142 -111.1714 234° Southwest 419 482 36,000  Level Albuquerque Center
Thu 03:32:50 PM 33.6486 -111.2878 236° Southwest 419 482 36,000  Level Albuquerque Center
Thu 03:33:52 PM 33.5897 -111.4094 240° Southwest 420 483 36,000  Level Albuquerque Center
Thu 03:34:54 PM 33.5297 -111.5308 239° Southwest 421 484 36,000  Level Albuquerque Center
Thu 03:35:56 PM 33.4575 -111.6753 239° Southwest 419 482 36,000  Level Albuquerque Center
Thu 03:36:58 PM 33.3975 -111.7981 240° Southwest 424 488 36,000  Level Albuquerque Center
Thu 03:37:59 PM 33.3375 -111.9178 239° Southwest 421 484 36,000  Level Albuquerque Center
Thu 03:39:01 PM 33.2778 -112.0361 239° Southwest 417 480 36,000  Level Albuquerque Center
Thu 03:40:03 PM 33.2175 -112.1553 239° Southwest 417 480 36,000  Level Albuquerque Center
Thu 03:41:05 PM 33.1572 -112.2756 239° Southwest 420 483 36,000 -48 Level Albuquerque Center
Thu 03:42:07 PM 33.0908 -112.4092 239° Southwest 419 482 35,900 -49 Descending Albuquerque Center
Thu 03:43:08 PM 33.0314 -112.5286 239° Southwest 419 482 35,900 49 Level Albuquerque Center
Thu 03:44:10 PM 32.9744 -112.6472 240° Southwest 416 479 36,000  Climbing Albuquerque Center
Thu 03:45:12 PM 32.9414 -112.7800 254° West 417 480 35,900  Descending Albuquerque Center
Thu 03:46:14 PM 32.9242 -112.9167 261° West 421 484 36,000 -341 Climbing Albuquerque Center
Thu 03:47:15 PM 32.9022 -113.0781 261° West 417 480 35,200 -927 Descending Albuquerque Center
Thu 03:48:17 PM 32.8836 -113.2122 261° West 415 478 34,100 -629 Descending Albuquerque Center
Thu 03:49:19 PM 32.8658 -113.3431 261° West 408 470 33,900 -48 Descending Albuquerque Center
Thu 03:50:21 PM 32.8472 -113.4753 261° West 408 470 34,000 49 Climbing Albuquerque Center
Thu 03:51:22 PM 32.8289 -113.6064 261° West 405 466 34,000  Level Albuquerque Center
Thu 03:51:37 PM 32.8228 -113.6431 259° West 406 467 34,000  Level Los Angeles Center
Thu 03:52:39 PM 32.8044 -113.7750 261° West 406 467 34,000 -48 Level Los Angeles Center
Thu 03:53:41 PM 32.7822 -113.9328 261° West 403 464 33,900 -48 Descending Los Angeles Center
Thu 03:54:43 PM 32.7744 -114.0644 266° West 400 460 33,900  Level Los Angeles Center
Thu 03:55:45 PM 32.7733 -114.1708 269° West 401 461 33,900 -242 Level Los Angeles Center
Thu 03:56:47 PM 32.7725 -114.3297 270° West 400 460 33,400 -581 Descending Los Angeles Center
Thu 03:57:49 PM 32.7694 -114.4358 268° West 401 461 32,700 -882 Descending Los Angeles Center
Thu 03:59:03 PM 32.7681 -114.5972 269° West 405 466 31,400 -1,139 Descending Los Angeles Center
Thu 04:00:06 PM 32.7636 -114.7811 268° West 394 453 30,100 -1,104 Descending Los Angeles Center
Thu 04:01:08 PM 32.7619 -114.9097 269° West 389 448 29,100 -1,016 Descending Los Angeles Center
Thu 04:02:10 PM 32.7592 -115.0369 269° West 386 444 28,000 -1,016 Descending Los Angeles Center
Thu 04:03:12 PM 32.7569 -115.1642 269° West 384 442 27,000 -912 Descending Los Angeles Center
Thu 04:04:15 PM 32.7528 -115.2883 268° West 376 433 26,100 -912 Descending Los Angeles Center
Thu 04:05:17 PM 32.7497 -115.4125 268° West 377 434 25,100 -1,645 Descending Los Angeles Center
Thu 04:06:19 PM 32.7486 -115.5597 270° West 373 429 22,700 -2,323 Descending Los Angeles Center
Thu 04:07:21 PM 32.7528 -115.6886 272° West 387 445 20,300 -1,645 Descending Los Angeles Center
Thu 04:08:23 PM 32.7553 -115.8067 271° West 359 413 19,300 -968 Descending Los Angeles Center
Thu 04:09:25 PM 32.7581 -115.9217 272° West 349 402 18,300 -1,403 Descending Los Angeles Center
Thu 04:10:27 PM 32.7617 -116.0383 272° West 353 406 16,400 -1,920 Descending Los Angeles Center
Thu 04:11:30 PM 32.7636 -116.1714 271° West 334 384 14,300 -1,776 Descending Los Angeles Center
Thu 04:12:32 PM 32.7661 -116.2794 272° West 325 374 12,700 -1,548 Descending Los Angeles Center
Thu 04:13:34 PM 32.7508 -116.3786 260° West 306 352 11,100 -1,355 Descending Los Angeles Center
Thu 04:14:36 PM 32.7381 -116.4767 261° West 297 342 9,900 -919 Descending Los Angeles Center
Thu 04:15:38 PM 32.7244 -116.5686 260° West 284 327 9,200 -968 Descending Los Angeles Center
Thu 04:16:40 PM 32.7122 -116.6622 261° West 286 329 7,900 -1,500 Descending Los Angeles Center
Thu 04:17:42 PM 32.7086 -116.7594 267° West 290 334 6,100 -1,016 Descending Los Angeles Center
Thu 04:18:44 PM 32.7042 -116.8519 267° West 287 330 5,800 -871 Descending Los Angeles Center
Thu 04:19:46 PM 32.6736 -116.9444 249° West 263 303 4,300 -1,131 Descending Los Angeles Center
Thu 04:20:46 PM 32.6833 -117.0000 282° West 201 231 3,500 -800 Descending Southern California TRACON

Login

Don't have an account? Register now (free) for customized features, flight alerts, and more!